createdAt,value
2023-05-17T00:00:17.000Z,3.4
2023-05-17T00:03:08.000Z,3.2
2023-05-17T00:06:41.000Z,3.8
2023-05-17T00:10:13.000Z,2.9
2023-05-17T00:13:46.000Z,2.8
2023-05-17T00:17:19.000Z,3.8
2023-05-17T00:20:52.000Z,3.4
2023-05-17T00:24:24.000Z,2.8
2023-05-17T00:27:57.000Z,2.7
2023-05-17T00:31:29.000Z,3.3
2023-05-17T00:35:02.000Z,3.1
2023-05-17T00:38:35.000Z,3.3
2023-05-17T00:41:26.000Z,3.1
2023-05-17T00:44:59.000Z,3.1
2023-05-17T00:48:31.000Z,3.3
2023-05-17T00:52:04.000Z,4.1
2023-05-17T00:55:37.000Z,3.5
2023-05-17T00:59:09.000Z,3.5
2023-05-17T01:02:42.000Z,3
2023-05-17T01:06:15.000Z,3.6
2023-05-17T01:09:48.000Z,3.5
2023-05-17T01:13:20.000Z,3.2
2023-05-17T01:16:53.000Z,3.4
2023-05-17T01:19:44.000Z,3.4
2023-05-17T01:23:17.000Z,3.5
2023-05-17T01:26:50.000Z,3.6
2023-05-17T01:30:22.000Z,3.6
2023-05-17T01:33:55.000Z,3.5
2023-05-17T01:37:28.000Z,3.6
2023-05-17T01:41:01.000Z,3.8
2023-05-17T01:44:34.000Z,3.8
2023-05-17T01:48:06.000Z,4
2023-05-17T01:51:39.000Z,3.8
2023-05-17T01:55:12.000Z,3.9
2023-05-17T01:58:03.000Z,3.9
2023-05-17T02:01:36.000Z,4
2023-05-17T02:05:08.000Z,3.3
2023-05-17T02:08:41.000Z,3.6
2023-05-17T02:12:14.000Z,3.7
2023-05-17T02:15:46.000Z,3.6
2023-05-17T02:19:19.000Z,4.1
2023-05-17T02:22:52.000Z,3.9
2023-05-17T02:26:24.000Z,3.3
2023-05-17T02:29:57.000Z,3.6
2023-05-17T02:33:29.000Z,3.7
2023-05-17T02:36:21.000Z,3.9
2023-05-17T02:39:54.000Z,4.1
2023-05-17T02:43:26.000Z,4.1
2023-05-17T02:46:59.000Z,3.6
2023-05-17T02:50:31.000Z,4
2023-05-17T02:54:04.000Z,3.6
2023-05-17T02:57:37.000Z,3.3
2023-05-17T03:01:09.000Z,3.3
2023-05-17T03:04:42.000Z,3.7
2023-05-17T03:08:15.000Z,3.9
2023-05-17T03:11:48.000Z,3.7
2023-05-17T03:14:39.000Z,4
2023-05-17T03:18:11.000Z,3.5
2023-05-17T03:21:44.000Z,3.9
2023-05-17T03:25:17.000Z,3.8
2023-05-17T03:28:49.000Z,3.6
2023-05-17T03:32:22.000Z,3.2
2023-05-17T03:35:55.000Z,3.7
2023-05-17T03:39:28.000Z,3.3
2023-05-17T03:43:00.000Z,4
2023-05-17T03:46:33.000Z,4.4
2023-05-17T03:50:06.000Z,4.3
2023-05-17T03:52:57.000Z,4.3
2023-05-17T03:56:29.000Z,4.3
2023-05-17T04:00:02.000Z,3.4
2023-05-17T04:03:35.000Z,4.2
2023-05-17T04:07:07.000Z,4.8
2023-05-17T04:10:40.000Z,4.4
2023-05-17T04:14:13.000Z,4.1
2023-05-17T04:17:45.000Z,4.3
2023-05-17T04:21:18.000Z,4.5
2023-05-17T04:24:51.000Z,4.7
2023-05-17T04:28:24.000Z,4.8
2023-05-17T04:31:15.000Z,4
2023-05-17T04:34:48.000Z,5
2023-05-17T04:38:20.000Z,4.7
2023-05-17T04:41:53.000Z,4.5
2023-05-17T04:45:26.000Z,4.5
2023-05-17T04:48:58.000Z,4.3
2023-05-17T04:52:31.000Z,4.8
2023-05-17T04:56:04.000Z,4.5
2023-05-17T04:59:36.000Z,5.5
2023-05-17T05:03:09.000Z,4.9
2023-05-17T05:06:42.000Z,4.6
2023-05-17T05:09:33.000Z,4.9
2023-05-17T05:13:06.000Z,5.3
2023-05-17T05:16:38.000Z,5.1
2023-05-17T05:20:11.000Z,4.6
2023-05-17T05:23:44.000Z,4.6
2023-05-17T05:27:17.000Z,5.2
2023-05-17T05:30:49.000Z,5.3
2023-05-17T05:34:22.000Z,5.5
2023-05-17T05:37:55.000Z,5.8
2023-05-17T05:41:27.000Z,5
2023-05-17T05:45:00.000Z,5.3
2023-05-17T05:47:51.000Z,5.4
2023-05-17T05:51:24.000Z,5.5
2023-05-17T05:55:16.000Z,5.4
2023-05-17T05:58:49.000Z,4.5
2023-05-17T06:02:21.000Z,5.3
2023-05-17T06:05:54.000Z,4.6
2023-05-17T06:09:27.000Z,4.2
2023-05-17T06:13:00.000Z,5.2
2023-05-17T06:16:32.000Z,5.3
2023-05-17T06:20:05.000Z,5.1
2023-05-17T06:23:38.000Z,5
2023-05-17T06:26:29.000Z,5.4
2023-05-17T06:30:02.000Z,4.8
2023-05-17T06:33:34.000Z,4.8
2023-05-17T06:37:07.000Z,5.5
2023-05-17T06:40:40.000Z,5.8
2023-05-17T06:44:13.000Z,5
2023-05-17T06:47:45.000Z,4.8
2023-05-17T06:51:18.000Z,4.6
2023-05-17T06:54:51.000Z,4
2023-05-17T06:58:23.000Z,4.9
2023-05-17T07:01:56.000Z,4.8
2023-05-17T07:04:47.000Z,4.3
2023-05-17T07:08:20.000Z,4.8
2023-05-17T07:11:52.000Z,4
2023-05-17T07:15:25.000Z,5
2023-05-17T07:18:58.000Z,4.4
2023-05-17T07:22:31.000Z,4.3
2023-05-17T07:26:03.000Z,4.5
2023-05-17T07:29:36.000Z,4.5
2023-05-17T07:33:08.000Z,4.4
2023-05-17T07:36:41.000Z,4.2
2023-05-17T07:40:14.000Z,4
2023-05-17T07:43:05.000Z,3.3
2023-05-17T07:46:37.000Z,3.8
2023-05-17T07:50:10.000Z,4
2023-05-17T07:53:43.000Z,3.6
2023-05-17T07:57:16.000Z,3.5
2023-05-17T08:00:50.000Z,3.6
2023-05-17T08:04:22.000Z,4.1
2023-05-17T08:07:55.000Z,3.5
2023-05-17T08:11:27.000Z,3.2
2023-05-17T08:15:00.000Z,3.4
2023-05-17T08:18:33.000Z,3.5
2023-05-17T08:21:25.000Z,3
2023-05-17T08:24:57.000Z,3.1
2023-05-17T08:28:30.000Z,3.4
2023-05-17T08:32:08.000Z,3
2023-05-17T08:35:40.000Z,3.6
2023-05-17T08:39:13.000Z,3.8
2023-05-17T08:42:46.000Z,3.4
2023-05-17T08:46:18.000Z,3.7
2023-05-17T08:49:51.000Z,3.4
2023-05-17T08:53:24.000Z,3
2023-05-17T08:56:56.000Z,3.6
2023-05-17T08:59:47.000Z,3.8
2023-05-17T09:03:23.000Z,3.5
2023-05-17T09:06:56.000Z,3.5
2023-05-17T09:10:29.000Z,2.9
2023-05-17T09:14:01.000Z,3
2023-05-17T09:17:34.000Z,3
2023-05-17T09:21:07.000Z,3.5
2023-05-17T09:24:40.000Z,3.1
2023-05-17T09:28:12.000Z,3.1
2023-05-17T09:31:45.000Z,3.6
2023-05-17T09:35:18.000Z,2.8
2023-05-17T09:38:09.000Z,3.5
2023-05-17T09:41:42.000Z,3.3
2023-05-17T09:45:15.000Z,3.5
2023-05-17T09:48:47.000Z,2.6
2023-05-17T09:52:24.000Z,3
2023-05-17T09:55:57.000Z,3
2023-05-17T09:59:30.000Z,3
2023-05-17T10:03:03.000Z,3
2023-05-17T10:06:35.000Z,2.6
2023-05-17T10:10:15.000Z,2.7
2023-05-17T10:13:47.000Z,2.9
2023-05-17T10:16:39.000Z,2.3
2023-05-17T10:20:11.000Z,2.5
2023-05-17T10:23:44.000Z,3
2023-05-17T10:27:17.000Z,2.3
2023-05-17T10:30:49.000Z,3.1
2023-05-17T10:34:22.000Z,2.5
2023-05-17T10:37:55.000Z,2.4
2023-05-17T10:41:28.000Z,2.3
2023-05-17T10:45:00.000Z,2.5
2023-05-17T10:48:33.000Z,2.3
2023-05-17T10:52:06.000Z,2.6
2023-05-17T10:54:57.000Z,2.8
2023-05-17T10:58:29.000Z,2.3
2023-05-17T11:02:02.000Z,2.7
2023-05-17T11:05:35.000Z,2.9
2023-05-17T11:09:09.000Z,2.3
2023-05-17T11:12:41.000Z,2.6
2023-05-17T11:16:14.000Z,2.7
2023-05-17T11:19:46.000Z,2.7
2023-05-17T11:23:19.000Z,2
2023-05-17T11:26:52.000Z,2.4
2023-05-17T11:30:25.000Z,2.7
2023-05-17T11:33:16.000Z,2.2
2023-05-17T11:36:58.000Z,2.3
2023-05-17T11:40:31.000Z,2.7
2023-05-17T11:44:04.000Z,2.8
2023-05-17T11:47:36.000Z,2.5
2023-05-17T11:51:19.000Z,2.8
2023-05-17T11:54:51.000Z,2.1
2023-05-17T11:58:41.000Z,2.5
2023-05-17T12:02:14.000Z,2.7
2023-05-17T12:05:46.000Z,3.1
2023-05-17T12:09:19.000Z,2.6
2023-05-17T12:12:10.000Z,2.6
2023-05-17T12:15:43.000Z,2.4
2023-05-17T12:19:16.000Z,2.5
2023-05-17T12:22:48.000Z,3.2
2023-05-17T12:26:21.000Z,3.1
2023-05-17T12:29:54.000Z,2.6
2023-05-17T12:33:26.000Z,2.5
2023-05-17T12:36:59.000Z,2.8
2023-05-17T12:40:32.000Z,2.8
2023-05-17T12:44:07.000Z,2.6
2023-05-17T12:47:41.000Z,2.4
2023-05-17T12:50:33.000Z,2.9
2023-05-17T12:54:06.000Z,2.5
2023-05-17T12:57:38.000Z,2.9
2023-05-17T13:01:11.000Z,2.7
2023-05-17T13:04:43.000Z,2.7
2023-05-17T13:08:16.000Z,2.5
2023-05-17T13:11:49.000Z,2.5
2023-05-17T13:15:22.000Z,2.5
2023-05-17T13:18:55.000Z,3
2023-05-17T13:22:28.000Z,2.4
2023-05-17T13:26:01.000Z,2.2
2023-05-17T13:28:52.000Z,2.5
2023-05-17T13:32:25.000Z,2.4
2023-05-17T13:35:58.000Z,2.6
2023-05-17T13:39:30.000Z,3
2023-05-17T13:43:03.000Z,2.3
2023-05-17T13:46:35.000Z,2.7
2023-05-17T13:50:08.000Z,2.4
2023-05-17T13:53:41.000Z,2.5
2023-05-17T13:57:14.000Z,2.5
2023-05-17T14:00:47.000Z,2.6
2023-05-17T14:04:19.000Z,2.5
2023-05-17T14:07:11.000Z,2.5
2023-05-17T14:10:43.000Z,2.5
2023-05-17T14:14:16.000Z,3.1
2023-05-17T14:17:48.000Z,2.1
2023-05-17T14:21:21.000Z,2.2
2023-05-17T14:24:54.000Z,1.9
2023-05-17T14:28:27.000Z,2.4
2023-05-17T14:31:59.000Z,2.4
2023-05-17T14:35:32.000Z,2.4
2023-05-17T14:39:05.000Z,2.5
2023-05-17T14:42:37.000Z,2
2023-05-17T14:45:29.000Z,2.2
2023-05-17T14:49:01.000Z,2.1
2023-05-17T14:52:34.000Z,2.1
2023-05-17T14:56:07.000Z,2
2023-05-17T14:59:39.000Z,2.2
2023-05-17T15:03:12.000Z,2.4
2023-05-17T15:06:47.000Z,2.1
2023-05-17T15:10:20.000Z,2.4
2023-05-17T15:13:53.000Z,2.4
2023-05-17T15:17:26.000Z,1.7
2023-05-17T15:20:58.000Z,2.9
2023-05-17T15:23:49.000Z,2.3
2023-05-17T15:27:22.000Z,2
2023-05-17T15:30:55.000Z,2.1
2023-05-17T15:34:27.000Z,2.2
2023-05-17T15:38:00.000Z,2.3
2023-05-17T15:41:33.000Z,2.1
2023-05-17T15:45:05.000Z,2.3
2023-05-17T15:48:38.000Z,2.2
2023-05-17T15:52:11.000Z,2.1
2023-05-17T15:55:43.000Z,1.8
2023-05-17T15:59:16.000Z,2.7
2023-05-17T16:02:07.000Z,2.6
2023-05-17T16:05:40.000Z,2.3
2023-05-17T16:09:13.000Z,2.1
2023-05-17T16:12:45.000Z,2
2023-05-17T16:16:18.000Z,2
2023-05-17T16:19:51.000Z,1.9
2023-05-17T16:23:24.000Z,2.1
2023-05-17T16:26:56.000Z,2
2023-05-17T16:30:33.000Z,2
2023-05-17T16:34:05.000Z,2.2
2023-05-17T16:37:38.000Z,1.8
2023-05-17T16:40:30.000Z,2.4
2023-05-17T16:44:02.000Z,2.4
2023-05-17T16:47:35.000Z,2.5
2023-05-17T16:51:08.000Z,2.2
2023-05-17T16:54:40.000Z,2.6
2023-05-17T16:58:13.000Z,2
2023-05-17T17:01:46.000Z,2.2
2023-05-17T17:05:19.000Z,2.5
2023-05-17T17:08:51.000Z,2.2
2023-05-17T17:12:24.000Z,2.2
2023-05-17T17:15:57.000Z,2.4
2023-05-17T17:18:48.000Z,2.1
2023-05-17T17:22:21.000Z,2.5
2023-05-17T17:25:53.000Z,2.4
2023-05-17T17:29:26.000Z,2.3
2023-05-17T17:32:59.000Z,1.9
2023-05-17T17:36:32.000Z,2.1
2023-05-17T17:40:04.000Z,2.4
2023-05-17T17:43:37.000Z,2
2023-05-17T17:47:09.000Z,2.5
2023-05-17T17:50:42.000Z,1.9
2023-05-17T17:54:15.000Z,2.3
2023-05-17T17:57:06.000Z,2.1
2023-05-17T18:00:38.000Z,2.2
2023-05-17T18:04:11.000Z,1.9
2023-05-17T18:07:44.000Z,2
2023-05-17T18:11:16.000Z,2.1
2023-05-17T18:14:50.000Z,1.8
2023-05-17T18:18:23.000Z,2.5
2023-05-17T18:21:55.000Z,2.3
2023-05-17T18:25:28.000Z,2.1
2023-05-17T18:29:01.000Z,2.6
2023-05-17T18:32:33.000Z,2.2
2023-05-17T18:35:25.000Z,2.5
2023-05-17T18:38:57.000Z,2.5
2023-05-17T18:42:30.000Z,2.5
2023-05-17T18:46:03.000Z,2.4
2023-05-17T18:49:36.000Z,2.5
2023-05-17T18:53:08.000Z,2.6
2023-05-17T18:56:41.000Z,2.9
2023-05-17T19:00:13.000Z,2.6
2023-05-17T19:03:46.000Z,2.8
2023-05-17T19:07:19.000Z,2.7
2023-05-17T19:10:52.000Z,3
2023-05-17T19:13:43.000Z,2.9
2023-05-17T19:17:16.000Z,2.2
2023-05-17T19:20:49.000Z,2.7
2023-05-17T19:24:21.000Z,2.6
2023-05-17T19:27:54.000Z,3.2
2023-05-17T19:31:26.000Z,2.9
2023-05-17T19:34:59.000Z,2.8
2023-05-17T19:38:32.000Z,3.7
2023-05-17T19:42:04.000Z,3.4
2023-05-17T19:45:37.000Z,3.9
2023-05-17T19:49:10.000Z,3
2023-05-17T19:52:01.000Z,2.9
2023-05-17T19:55:49.000Z,3.4
2023-05-17T19:59:22.000Z,2.8
2023-05-17T20:02:55.000Z,3.4
2023-05-17T20:06:27.000Z,10.9
2023-05-17T20:10:00.000Z,7.1
2023-05-17T20:13:32.000Z,4.7
2023-05-17T20:17:06.000Z,4
2023-05-17T20:20:41.000Z,3.4
2023-05-17T20:24:13.000Z,3.3
2023-05-17T20:27:46.000Z,2.8
2023-05-17T20:30:37.000Z,3.3
2023-05-17T20:34:10.000Z,3.4
2023-05-17T20:37:43.000Z,3.4
2023-05-17T20:41:15.000Z,3.6
2023-05-17T20:44:48.000Z,3.2
2023-05-17T20:48:21.000Z,3.1
2023-05-17T20:51:53.000Z,3.5
2023-05-17T20:55:26.000Z,3.9
2023-05-17T20:58:58.000Z,3.5
2023-05-17T21:02:31.000Z,4.2
2023-05-17T21:06:04.000Z,4.1
2023-05-17T21:08:55.000Z,3.9
2023-05-17T21:12:28.000Z,3.5
2023-05-17T21:16:01.000Z,3.8
2023-05-17T21:19:34.000Z,3.5
2023-05-17T21:23:06.000Z,3.9
2023-05-17T21:26:39.000Z,3.5
2023-05-17T21:30:11.000Z,3.6
2023-05-17T21:33:44.000Z,4
2023-05-17T21:37:17.000Z,4.1
2023-05-17T21:40:50.000Z,3.9
2023-05-17T21:44:22.000Z,8.7
2023-05-17T21:47:14.000Z,5.5
2023-05-17T21:50:46.000Z,4
2023-05-17T21:54:19.000Z,3.9
2023-05-17T21:58:01.000Z,3.9
2023-05-17T22:01:34.000Z,3.6
2023-05-17T22:05:07.000Z,3.2
2023-05-17T22:08:39.000Z,3.9
2023-05-17T22:12:12.000Z,4
2023-05-17T22:15:45.000Z,3.7
2023-05-17T22:19:18.000Z,3.8
2023-05-17T22:22:50.000Z,4.1
2023-05-17T22:25:42.000Z,4.2
2023-05-17T22:29:14.000Z,4.2
2023-05-17T22:32:47.000Z,3.5
2023-05-17T22:36:20.000Z,4.2
2023-05-17T22:39:53.000Z,4.2
2023-05-17T22:43:25.000Z,4.3
2023-05-17T22:46:58.000Z,4.3
2023-05-17T22:50:31.000Z,4.5
2023-05-17T22:54:04.000Z,4.3
2023-05-17T22:57:36.000Z,4.3
2023-05-17T23:01:09.000Z,4
2023-05-17T23:04:00.000Z,4
2023-05-17T23:07:33.000Z,4.1
2023-05-17T23:11:05.000Z,4.1
2023-05-17T23:14:38.000Z,4.1
2023-05-17T23:18:11.000Z,4
2023-05-17T23:21:43.000Z,4.1
2023-05-17T23:25:16.000Z,3.9
2023-05-17T23:28:49.000Z,3.7
2023-05-17T23:32:21.000Z,3.7
2023-05-17T23:35:54.000Z,4
2023-05-17T23:39:26.000Z,4.2
2023-05-17T23:42:18.000Z,3.6
2023-05-17T23:45:50.000Z,3.9
2023-05-17T23:49:23.000Z,4
2023-05-17T23:52:56.000Z,3.9
2023-05-17T23:56:28.000Z,3.8
